Latest Weather Observations for Brisbane Airport

IDQ60801

Issued at 1:42 pm EST Tuesday 29 September 2020 (issued every 10 minutes, with the page automatically refreshed every 10 minutes)

About weather observations | Map of weather stations | Latest weather observations for QLD | Other Formats
Station Details ID: 040842 Name: BRISBANE AERO Lat: -27.39 Lon: 153.13 Height: 4.51 m
Data from the previous 72 hours. | See also: Recent months at Brisbane Airport
Date/Time
EST
Temp
°C
App
Temp
°C
Dew
Point
°C
Rel
Hum
%
Delta-T
°C
Wind Press
QNH
hPa
Press
MSL
hPa
Rain since
9am
mm
Dir  Spd
km/h
Gust
km/h
Spd
kts
Gust
kts
29/01:30pm 21.9 17.5 7.3 39 7.5 SE 20 33 11 18 1022.8 1022.7 0.0
29/01:00pm 22.5 18.2 7.9 39 7.6 SE 20 32 11 17 1023.2 1023.1 0.0
29/12:30pm 22.2 17.9 7.8 39 7.5 SE 20 33 11 18 1023.6 1023.5 0.0
29/12:00pm 22.0 17.6 7.5 39 7.5 ESE 20 33 11 18 1024.0 1023.9 0.0
29/11:30am 22.6 18.4 8.1 39 7.6 ESE 20 33 11 18 1024.7 1024.6 0.0
29/11:00am 21.3 16.9 7.2 40 7.2 SE 20 33 11 18 1025.3 1025.2 0.0
29/10:30am 21.3 17.4 8.5 43 6.7 SE 19 32 10 17 1025.5 1025.4 0.0
29/10:00am 20.5 16.5 8.9 47 6.1 SE 20 30 11 16 1025.8 1025.7 0.0
29/09:30am 20.4 16.6 9.7 50 5.7 ESE 20 32 11 17 1025.8 1025.7 0.0
29/09:00am 20.7 17.4 9.6 49 5.9 SSE 17 26 9 14 1025.8 1025.7 0.0
29/08:30am 19.3 16.5 9.9 54 5.0 SSE 15 30 8 16 1025.8 1025.7 0.0
29/08:00am 19.5 16.7 10.1 54 5.0 S 15 20 8 11 1025.5 1025.4 0.0
29/07:30am 18.0 15.5 9.6 58 4.4 SSW 13 19 7 10 1025.0 1024.9 0.0
29/07:00am 16.9 14.3 9.4 61 3.9 SSW 13 17 7 9 1024.8 1024.7 0.0
29/06:30am 15.7 13.5 9.5 66 3.2 SW 11 13 6 7 1024.4 1024.3 0.0
29/06:00am 14.1 11.9 9.4 73 2.4 SSW 11 17 6 9 1023.8 1023.7 0.0
29/05:30am 13.0 11.1 9.2 78 1.9 SSW 9 13 5 7 1023.4 1023.3 0.0
29/05:00am 13.2 11.4 9.5 78 1.9 SSW 9 13 5 7 1022.9 1022.8 0.0
29/04:30am 13.1 11.3 9.3 78 1.9 SSW 9 13 5 7 1022.9 1022.8 0.0
29/04:00am 13.0 10.8 9.4 79 1.8 SSW 11 15 6 8 1022.9 1022.8 0.0
29/03:30am 13.3 11.2 9.6 78 1.9 SSW 11 15 6 8 1023.1 1023.0 0.0
29/03:00am 13.0 10.9 9.7 80 1.7 SSW 11 13 6 7 1023.1 1023.0 0.0
29/02:30am 13.3 11.2 9.6 78 1.9 SW 11 13 6 7 1023.2 1023.1 0.0
29/02:00am 13.7 11.7 10.0 78 1.9 SSW 11 13 6 7 1023.5 1023.4 0.0
29/01:30am 13.5 11.4 9.8 78 1.9 SSW 11 13 6 7 1023.7 1023.6 0.0
29/01:00am 14.9 12.7 9.4 69 2.8 SSW 11 15 6 8 1024.1 1024.0 0.0
29/12:30am 15.2 13.0 9.3 68 3.0 SSW 11 17 6 9 1024.4 1024.3 0.0
29/12:00am 15.4 13.7 9.8 69 2.9 SSW 9 15 5 8 1024.7 1024.6 0.0
 
Date/Time
EST
Temp
°C
App
Temp
°C
Dew
Point
°C
Rel
Hum
%
Delta-T
°C
Wind Press
QNH
hPa
Press
MSL
hPa
Rain since
9am
mm
Dir  Spd
km/h
Gust
km/h
Spd
kts
Gust
kts
28/11:30pm 15.2 13.9 9.8 70 2.8 SSW 7 11 4 6 1024.6 1024.5 0.0
28/11:00pm 15.3 13.2 9.9 70 2.8 SW 11 13 6 7 1024.8 1024.7 0.0
28/10:30pm 15.4 14.2 10.2 71 2.7 S 7 11 4 6 1024.6 1024.5 0.0
28/10:00pm 15.5 14.6 10.6 72 2.6 SSW 6 9 3 5 1024.8 1024.7 0.0
28/09:30pm 15.7 14.3 11.0 73 2.5 SSW 9 11 5 6 1024.9 1024.8 0.0
28/09:00pm 16.2 14.9 11.1 72 2.7 S 9 15 5 8 1025.0 1024.9 0.0
28/08:30pm 17.2 14.8 11.3 68 3.2 SE 15 26 8 14 1024.9 1024.8 0.0
28/08:00pm 17.4 15.5 11.7 69 3.1 SE 13 24 7 13 1024.8 1024.7 0.0
28/07:30pm 17.6 15.2 11.5 67 3.3 SE 15 26 8 14 1024.4 1024.3 0.0
28/07:00pm 18.1 15.0 10.2 60 4.2 SE 17 32 9 17 1024.3 1024.2 0.0
28/06:30pm 18.0 15.1 11.1 64 3.7 SE 17 30 9 16 1024.1 1024.0 0.0
28/06:00pm 18.3 15.2 11.5 64 3.7 SE 19 28 10 15 1023.6 1023.5 0.0
28/05:30pm 18.9 16.0 12.2 65 3.7 SE 19 32 10 17 1023.3 1023.2 0.0
28/05:00pm 19.4 16.9 12.4 64 3.9 SE 17 33 9 18 1022.9 1022.8 0.0
28/04:30pm 19.8 16.6 11.8 60 4.4 SE 20 32 11 17 1022.5 1022.4 0.0
28/04:00pm 20.1 16.5 12.0 59 4.5 SE 22 35 12 19 1022.2 1022.1 0.0
28/03:30pm 20.5 17.3 11.4 56 5.0 SE 19 32 10 17 1022.1 1022.0 0.0
28/03:00pm 20.6 17.1 10.9 53 5.3 ESE 20 30 11 16 1022.2 1022.1 0.0
28/02:30pm 21.3 17.8 10.2 49 6.0 SE 19 32 10 17 1022.3 1022.2 0.0
28/02:00pm 20.7 17.3 11.2 54 5.2 ESE 20 32 11 17 1022.4 1022.3 0.0
28/01:30pm 21.2 17.7 10.8 51 5.7 SE 20 33 11 18 1022.8 1022.7 0.0
28/01:00pm 21.0 17.1 10.9 52 5.5 ESE 22 32 12 17 1023.0 1022.9 0.0
28/12:30pm 20.8 17.4 11.4 55 5.2 ESE 20 33 11 18 1023.4 1023.3 0.0
28/12:00pm 21.3 17.6 11.5 53 5.4 ESE 22 33 12 18 1024.0 1023.9 0.0
28/11:30am 21.1 17.7 11.1 52 5.5 SE 20 33 11 18 1024.5 1024.4 0.0
28/11:00am 20.7 17.4 11.7 56 5.0 ESE 20 32 11 17 1024.8 1024.7 0.0
28/10:30am 20.8 17.6 11.1 53 5.3 ESE 19 28 10 15 1025.1 1025.0 0.0
28/10:00am 20.8 17.5 9.7 49 5.9 SE 17 32 9 17 1025.3 1025.2 0.0
28/09:30am 20.4 17.4 10.6 53 5.3 SE 17 28 9 15 1025.4 1025.3 0.0
28/09:00am 19.8 16.6 10.1 53 5.2 SE 17 28 9 15 1025.5 1025.4 0.0
28/08:30am 19.2 16.1 9.0 51 5.3 SSE 15 26 8 14 1025.3 1025.2 0.0
28/08:00am 17.9 14.5 7.6 51 5.2 S 15 20 8 11 1025.2 1025.1 0.0
28/07:30am 16.1 12.9 6.9 54 4.5 S 13 19 7 10 1025.0 1024.9 0.0
28/07:00am 15.1 12.2 6.6 57 4.1 SSW 11 17 6 9 1024.8 1024.7 0.0
28/06:30am 13.9 10.6 6.6 61 3.5 SSW 13 15 7 8 1024.5 1024.4 0.0
28/06:00am 12.3 9.0 6.4 67 2.8 SSW 13 17 7 9 1024.0 1023.9 0.0
28/05:30am 11.6 8.3 6.3 70 2.5 SSW 13 17 7 9 1023.6 1023.5 0.0
28/05:00am 11.1 7.4 6.2 72 2.3 SSW 15 19 8 10 1023.3 1023.2 0.0
28/04:30am 10.5 7.5 6.2 75 2.0 SSW 11 13 6 7 1023.2 1023.1 0.0
28/04:00am 10.4 7.8 6.3 76 1.9 SW 9 11 5 6 1022.9 1022.8 0.0
28/03:30am 11.6 9.0 6.3 70 2.5 SW 9 13 5 7 1022.8 1022.7 0.0
28/03:00am 12.1 9.3 6.8 70 2.5 SSW 11 13 6 7 1022.8 1022.7 0.0
28/02:30am 12.6 9.8 7.0 68 2.7 SSW 11 13 6 7 1022.9 1022.8 0.0
28/02:00am 12.3 10.0 7.3 71 2.4 SSW 9 13 5 7 1023.1 1023.0 0.0
28/01:30am 14.0 11.7 7.5 65 3.2 S 9 13 5 7 1023.3 1023.2 0.0
28/01:00am 14.1 11.4 7.3 63 3.3 S 11 17 6 9 1023.6 1023.5 0.0
28/12:30am 14.3 11.2 7.3 63 3.4 S 13 17 7 9 1023.7 1023.6 0.0
28/12:00am 14.7 11.9 7.1 60 3.7 S 11 19 6 10 1023.9 1023.8 0.0
 
Date/Time
EST
Temp
°C
App
Temp
°C
Dew
Point
°C
Rel
Hum
%
Delta-T
°C
Wind Press
QNH
hPa
Press
MSL
hPa
Rain since
9am
mm
Dir  Spd
km/h
Gust
km/h
Spd
kts
Gust
kts
27/11:30pm 14.5 11.7 6.9 60 3.7 S 11 19 6 10 1024.0 1023.9 0.0
27/11:00pm 15.0 12.1 6.5 57 4.1 S 11 17 6 9 1024.1 1024.0 0.0
27/10:30pm 15.2 13.1 6.5 56 4.2 S 7 13 4 7 1023.8 1023.7 0.0
27/10:00pm 14.9 12.4 6.6 57 4.0 SSW 9 13 5 7 1023.6 1023.5 0.0
27/09:30pm 15.2 13.0 6.3 55 4.3 SSW 7 9 4 5 1023.3 1023.2 0.0
27/09:00pm 15.8 13.5 5.5 50 4.9 SSW 7 9 4 5 1023.2 1023.1 0.0
27/08:30pm 16.4 14.6 5.3 47 5.3 SSW 4 7 2 4 1022.9 1022.8 0.0
27/08:00pm 17.0 13.7 4.7 44 5.8 ESE 11 17 6 9 1022.6 1022.5 0.0
27/07:30pm 18.4 15.1 4.5 40 6.6 ESE 11 17 6 9 1022.0 1021.9 0.0
27/07:00pm 18.5 14.9 5.0 41 6.5 ESE 13 19 7 10 1021.5 1021.4 0.0
27/06:30pm 18.5 15.5 5.8 43 6.2 E 11 17 6 9 1021.0 1020.9 0.0
27/06:00pm 18.6 15.2 6.0 43 6.2 ESE 13 22 7 12 1020.5 1020.4 0.0
27/05:30pm 19.0 15.6 5.7 41 6.5 E 13 19 7 10 1020.0 1019.9 0.0
27/05:00pm 19.4 14.9 6.1 42 6.6 E 19 30 10 16 1019.5 1019.4 0.0
27/04:30pm 19.9 14.9 4.5 36 7.4 E 20 32 11 17 1019.1 1019.0 0.0
27/04:00pm 20.5 16.2 7.1 42 6.8 E 19 28 10 15 1018.9 1018.8 0.0
27/03:30pm 21.0 16.5 6.0 37 7.5 ENE 19 26 10 14 1018.5 1018.4 0.0
27/03:00pm 22.0 16.2 2.4 27 9.2 ENE 22 30 12 16 1018.1 1018.0 0.0
27/02:30pm 22.2 15.3 -2.7 18 10.6 NE 24 32 13 17 1018.2 1018.1 0.0
27/02:00pm 22.6 15.9 -0.9 21 10.4 NE 24 32 13 17 1018.6 1018.5 0.0
27/01:30pm 21.9 14.8 -1.2 21 10.1 NE 26 33 14 18 1018.9 1018.8 0.0
27/01:00pm 22.3 15.3 -3.4 17 10.8 NE 24 32 13 17 1019.4 1019.3 0.0
27/12:30pm 21.8 15.3 -2.7 19 10.4 NE 22 30 12 16 1019.8 1019.7 0.0
27/12:00pm 22.3 17.3 -7.8 12 11.6 ENE 11 20 6 11 1020.3 1020.2 0.0
27/11:30am 22.1 17.6 -11.3 10 12.0 SW 7 17 4 9 1020.9 1020.8 0.0
27/11:00am 22.1 16.3 -8.4 12 11.6 WSW 15 20 8 11 1021.1 1021.0 0.0
27/10:30am 21.2 15.1 -7.5 14 11.0 SW 17 26 9 14 1021.7 1021.6 0.0
27/10:00am 20.7 14.6 -7.2 14 10.7 SW 17 28 9 15 1022.1 1022.0 0.0
27/09:30am 20.2 13.3 -6.4 16 10.3 WSW 22 30 12 16 1022.1 1022.0 0.0
27/09:00am 20.0 12.7 -5.8 17 10.1 SW 24 32 13 17 1022.1 1022.0 0.0
27/08:30am 18.2 11.7 -5.7 19 9.2 SSW 20 28 11 15 1022.1 1022.0 0.0
27/08:00am 17.6 10.9 -4.2 22 8.6 SW 22 30 12 16 1021.9 1021.8 0.0
27/07:30am 16.5 10.2 -3.9 24 8.0 SW 20 26 11 14 1021.7 1021.6 0.0
27/07:00am 13.8 9.1 -2.1 33 6.3 SW 13 15 7 8 1021.4 1021.3 0.0
27/06:30am 11.5 7.3 -0.8 42 4.9 SW 11 17 6 9 1021.1 1021.0 0.0
27/06:00am 10.5 6.6 -1.6 43 4.7 SSW 9 11 5 6 1020.4 1020.3 0.0
27/05:30am 9.9 6.1 -1.1 46 4.3 SSE 9 13 5 7 1020.2 1020.1 0.0
27/05:00am 9.4 5.8 -2.3 44 4.4 SSW 7 9 4 5 1019.6 1019.5 0.0
27/04:30am 10.5 6.9 -2.0 41 4.8 S 7 9 4 5 1019.3 1019.2 0.0
27/04:00am 9.3 6.4 -1.3 47 4.1 SSW 4 9 2 5 1019.0 1018.9 0.0
27/03:30am 10.3 5.4 -3.1 39 5.0 SW 13 15 7 8 1018.6 1018.5 0.0
27/03:00am 11.4 7.3 -3.1 36 5.5 SW 9 11 5 6 1018.6 1018.5 0.0
27/02:30am 9.6 4.5 -2.3 43 4.5 SW 15 15 8 8 1018.5 1018.4 0.0
27/02:00am 11.7 6.4 -3.4 34 5.7 SW 15 17 8 9 1018.7 1018.6 0.0
27/01:30am 12.9 7.5 -4.1 30 6.4 SW 15 17 8 9 1019.0 1018.9 0.0
27/01:00am 10.7 5.9 -2.8 38 5.1 SW 13 15 7 8 1019.2 1019.1 0.0
27/12:30am 11.2 5.5 -3.5 35 5.5 SW 17 22 9 12 1019.3 1019.2 0.0
27/12:00am 12.0 6.0 -2.9 35 5.7 WSW 19 24 10 13 1019.3 1019.2 0.0
 
Date/Time
EST
Temp
°C
App
Temp
°C
Dew
Point
°C
Rel
Hum
%
Delta-T
°C
Wind Press
QNH
hPa
Press
MSL
hPa
Rain since
9am
mm
Dir  Spd
km/h
Gust
km/h
Spd
kts
Gust
kts
26/11:30pm 13.9 8.5 -4.3 28 6.9 WSW 15 20 8 11 1019.6 1019.5 0.0
26/11:00pm 13.2 7.2 -3.1 32 6.3 WSW 19 22 10 12 1019.3 1019.2 0.0
26/10:30pm 12.1 7.2 -3.1 34 5.8 SW 13 15 7 8 1019.5 1019.4 0.0
26/10:00pm 13.1 7.5 -2.9 33 6.2 W 17 20 9 11 1019.5 1019.4 0.0
26/09:30pm 14.4 9.6 -2.9 30 6.8 W 13 17 7 9 1019.5 1019.4 0.0
26/09:00pm 14.7 9.9 -2.3 31 6.8 W 13 17 7 9 1019.2 1019.1 0.0
26/08:30pm 15.9 11.1 -2.5 28 7.4 W 13 15 7 8 1019.0 1018.9 0.0
26/08:00pm 16.6 11.7 -3.6 25 8.0 WSW 13 17 7 9 1018.6 1018.5 0.0
26/07:30pm 17.5 12.5 -4.3 22 8.6 W 13 17 7 9 1017.8 1017.8 0.0
26/07:00pm 18.2 12.3 -6.1 18 9.3 W 17 24 9 13 1017.2 1017.2 0.0
26/06:30pm 19.1 12.5 -7.0 16 9.9 WSW 20 24 11 13 1016.5 1016.5 0.0
26/06:00pm 20.1 11.5 -8.2 14 10.6 WSW 30 39 16 21 1015.6 1015.6 0.0
26/05:30pm 20.7 13.6 -8.9 13 11.0 WSW 22 30 12 16 1014.7 1014.7 0.0
26/05:00pm 22.4 13.7 -9.9 11 12.0 W 30 43 16 23 1013.9 1013.9 0.0
26/04:30pm 23.1 13.8 -9.5 10 12.3 W 33 44 18 24 1013.6 1013.6 0.0
26/04:00pm 23.7 14.4 -9.4 10 12.6 WSW 33 48 18 26 1013.2 1013.2 0.0
26/03:58pm 23.5 14.2 -10.1 10 12.6 W 33 48 18 26 1013.1 1013.1 0.0
26/03:30pm 24.0 13.6 -9.7 10 12.8 W 39 54 21 29 1012.9 1012.9 0.0
26/03:00pm 23.5 12.6 -10.9 9 12.7 W 41 56 22 30 1012.7 1012.7 0.0
26/02:30pm 24.2 13.0 -9.7 10 12.9 W 43 61 23 33 1012.9 1012.9 0.0
26/02:00pm 24.0 12.5 -11.2 9 13.0 W 44 61 24 33 1012.9 1012.9 0.0

Other formats

Comma delimited format used in spreadsheet applications
http://www.bom.gov.au/fwo/IDQ60801/IDQ60801.94578.axf

JavaScript Object Notation format (JSON) in row-major order
http://www.bom.gov.au/fwo/IDQ60801/IDQ60801.94578.json

Data quality

Most of these data are generated automatically and are frequently updated. Quality checks on data are not normally performed. It is possible for incorrect values to appear. Refer to information at About Latest Weather Observations and please check the disclaimer before using these data.